PWSweather.com
Personal Weather Stations
Station Observations
BAYPARK
Bay Park, Ny, East Rockaway, NY 11518

Bay Park, NyEast Rockaway, NY 11518

Lat: 40.6310098, Lon: -73.6727287

Elevation: 11

Station Type: AcuRite Pro

https://www.awekas.at/en/instrument.php?id=14894

High Low Average
Temperature 77.2°F25.1°C 52.3°F11.3°C 65.8°F18.8°C
Dew Point 65.6°F18.7°C 49.3°F9.6°C 57.4°F14.1°C
Winds 4.7 mph 7.6 kmh Calm Calm 1.0 mph SW1.6 kmh SW
Wind Gusts 8.9 mph14.3 kmh -- 3.0 mph4.8 kmh
Humidity 97% 51% 76%
Pressure 29.96 in1014.6 mb 29.86 in1011.2 mb -
Precipitation 0.00 in0.0 mm - -
Hour Temp Dew Point Humidity Winds Wind Gusts Pressure Precip Precip Rate Daily Precip Total
12:00 AM 60.4°F15.8°C 49.8°F9.9°C 68% Calm Calm -- 29.90 in1012.5 mb 0.00 in0.0 mm 0.00 in0.0 mm 0.00 in0.0 mm
12:05 AM 60.1°F15.6°C 49.5°F9.7°C 68% Calm Calm -- 29.90 in1012.5 mb 0.00 in0.0 mm 0.00 in0.0 mm 0.00 in0.0 mm
12:10 AM 59.5°F15.3°C 49.7°F9.8°C 70% Calm Calm -- 29.90 in1012.5 mb 0.00 in0.0 mm 0.00 in0.0 mm 0.00 in0.0 mm
12:15 AM 59.4°F15.2°C 49.6°F9.8°C 70% Calm Calm -- 29.89 in1012.2 mb 0.00 in0.0 mm 0.00 in0.0 mm 0.00 in0.0 mm
12:20 AM 59.0°F15.0°C 49.6°F9.8°C 71% Calm Calm -- 29.89 in1012.2 mb 0.00 in0.0 mm 0.00 in0.0 mm 0.00 in0.0 mm
12:25 AM 58.6°F14.8°C 49.6°F9.8°C 72% Calm Calm -- 29.89 in1012.2 mb 0.00 in0.0 mm 0.00 in0.0 mm 0.00 in0.0 mm
12:30 AM 58.4°F14.7°C 49.8°F9.9°C 73% Calm Calm -- 29.89 in1012.2 mb 0.00 in0.0 mm 0.00 in0.0 mm 0.00 in0.0 mm
12:35 AM 58.0°F14.4°C 49.4°F9.7°C 73% Calm Calm -- 29.89 in1012.2 mb 0.00 in0.0 mm 0.00 in0.0 mm 0.00 in0.0 mm
12:40 AM 57.7°F14.3°C 49.4°F9.7°C 74% Calm Calm -- 29.89 in1012.2 mb 0.00 in0.0 mm 0.00 in0.0 mm 0.00 in0.0 mm
12:45 AM 57.5°F14.2°C 49.3°F9.6°C 74% Calm Calm -- 29.89 in1012.2 mb 0.00 in0.0 mm 0.00 in0.0 mm 0.00 in0.0 mm
12:50 AM 57.1°F13.9°C 49.3°F9.6°C 75% Calm Calm -- 29.89 in1012.2 mb 0.00 in0.0 mm 0.00 in0.0 mm 0.00 in0.0 mm
12:55 AM 56.8°F13.8°C 49.3°F9.6°C 76% Calm Calm -- 29.89 in1012.2 mb 0.00 in0.0 mm 0.00 in0.0 mm 0.00 in0.0 mm
01:00 AM 56.8°F13.8°C 49.3°F9.6°C 76% Calm Calm -- 29.89 in1012.2 mb 0.00 in0.0 mm 0.00 in0.0 mm 0.00 in0.0 mm
01:05 AM 56.7°F13.7°C 49.3°F9.6°C 76% Calm Calm -- 29.89 in1012.2 mb 0.00 in0.0 mm 0.00 in0.0 mm 0.00 in0.0 mm
01:10 AM 56.4°F13.6°C 49.5°F9.7°C 78% Calm Calm -- 29.89 in1012.2 mb 0.00 in0.0 mm 0.00 in0.0 mm 0.00 in0.0 mm
01:15 AM 55.9°F13.3°C 50.0°F10.0°C 81% Calm Calm -- 29.89 in1012.2 mb 0.00 in0.0 mm 0.00 in0.0 mm 0.00 in0.0 mm
01:20 AM 56.1°F13.4°C 50.0°F10.0°C 80% Calm Calm -- 29.89 in1012.2 mb 0.00 in0.0 mm 0.00 in0.0 mm 0.00 in0.0 mm
01:25 AM 56.1°F13.4°C 50.1°F10.1°C 80% Calm Calm -- 29.89 in1012.2 mb 0.00 in0.0 mm 0.00 in0.0 mm 0.00 in0.0 mm
01:30 AM 55.9°F13.3°C 50.5°F10.3°C 82% Calm Calm -- 29.89 in1012.2 mb 0.00 in0.0 mm 0.00 in0.0 mm 0.00 in0.0 mm
01:35 AM 55.8°F13.2°C 50.8°F10.4°C 83% Calm Calm -- 29.89 in1012.2 mb 0.00 in0.0 mm 0.00 in0.0 mm 0.00 in0.0 mm
01:40 AM 55.7°F13.2°C 50.6°F10.3°C 83% Calm Calm -- 29.90 in1012.5 mb 0.00 in0.0 mm 0.00 in0.0 mm 0.00 in0.0 mm
01:45 AM 55.7°F13.2°C 50.6°F10.3°C 83% Calm Calm -- 29.90 in1012.5 mb 0.00 in0.0 mm 0.00 in0.0 mm 0.00 in0.0 mm
01:50 AM 55.8°F13.2°C 50.4°F10.2°C 82% Calm Calm -- 29.89 in1012.2 mb 0.00 in0.0 mm 0.00 in0.0 mm 0.00 in0.0 mm
01:55 AM 55.9°F13.3°C 50.2°F10.1°C 81% Calm Calm -- 29.89 in1012.2 mb 0.00 in0.0 mm 0.00 in0.0 mm 0.00 in0.0 mm
02:00 AM 55.9°F13.3°C 50.2°F10.1°C 81% Calm Calm -- 29.89 in1012.2 mb 0.00 in0.0 mm 0.00 in0.0 mm 0.00 in0.0 mm
02:05 AM 55.9°F13.3°C 49.8°F9.9°C 80% Calm Calm -- 29.89 in1012.2 mb 0.00 in0.0 mm 0.00 in0.0 mm 0.00 in0.0 mm
02:10 AM 56.1°F13.4°C 50.0°F10.0°C 80% Calm Calm -- 29.89 in1012.2 mb 0.00 in0.0 mm 0.00 in0.0 mm 0.00 in0.0 mm
02:15 AM 56.1°F13.4°C 50.0°F10.0°C 80% Calm Calm -- 29.89 in1012.2 mb 0.00 in0.0 mm 0.00 in0.0 mm 0.00 in0.0 mm
02:20 AM 55.9°F13.3°C 49.9°F9.9°C 80% Calm Calm -- 29.89 in1012.2 mb 0.00 in0.0 mm 0.00 in0.0 mm 0.00 in0.0 mm
02:25 AM 55.9°F13.3°C 49.8°F9.9°C 80% Calm Calm -- 29.89 in1012.2 mb 0.00 in0.0 mm 0.00 in0.0 mm 0.00 in0.0 mm
02:30 AM 55.8°F13.2°C 50.0°F10.0°C 81% Calm Calm -- 29.89 in1012.2 mb 0.00 in0.0 mm 0.00 in0.0 mm 0.00 in0.0 mm
02:35 AM 55.6°F13.1°C 50.2°F10.1°C 82% Calm Calm -- 29.89 in1012.2 mb 0.00 in0.0 mm 0.00 in0.0 mm 0.00 in0.0 mm
02:40 AM 55.5°F13.1°C 50.2°F10.1°C 82% Calm Calm -- 29.89 in1012.2 mb 0.00 in0.0 mm 0.00 in0.0 mm 0.00 in0.0 mm
02:45 AM 55.2°F12.9°C 50.4°F10.2°C 84% Calm Calm -- 29.89 in1012.2 mb 0.00 in0.0 mm 0.00 in0.0 mm 0.00 in0.0 mm
02:50 AM 55.2°F12.9°C 50.3°F10.2°C 84% Calm Calm -- 29.89 in1012.2 mb 0.00 in0.0 mm 0.00 in0.0 mm 0.00 in0.0 mm
02:55 AM 55.1°F12.8°C 50.2°F10.1°C 83% Calm Calm -- 29.89 in1012.2 mb 0.00 in0.0 mm 0.00 in0.0 mm 0.00 in0.0 mm
03:00 AM 55.0°F12.8°C 50.3°F10.2°C 84% Calm Calm -- 29.89 in1012.2 mb 0.00 in0.0 mm 0.00 in0.0 mm 0.00 in0.0 mm
03:05 AM 55.0°F12.8°C 50.0°F10.0°C 83% Calm Calm -- 29.90 in1012.5 mb 0.00 in0.0 mm 0.00 in0.0 mm 0.00 in0.0 mm
03:10 AM 55.0°F12.8°C 50.2°F10.1°C 84% Calm Calm -- 29.90 in1012.5 mb 0.00 in0.0 mm 0.00 in0.0 mm 0.00 in0.0 mm
03:15 AM 54.8°F12.7°C 50.2°F10.1°C 84% Calm Calm -- 29.90 in1012.5 mb 0.00 in0.0 mm 0.00 in0.0 mm 0.00 in0.0 mm
03:20 AM 54.7°F12.6°C 50.3°F10.2°C 85% Calm Calm -- 29.90 in1012.5 mb 0.00 in0.0 mm 0.00 in0.0 mm 0.00 in0.0 mm
03:25 AM 54.4°F12.4°C 50.3°F10.2°C 86% Calm Calm -- 29.90 in1012.5 mb 0.00 in0.0 mm 0.00 in0.0 mm 0.00 in0.0 mm
03:30 AM 54.3°F12.4°C 50.3°F10.2°C 86% Calm Calm -- 29.91 in1012.9 mb 0.00 in0.0 mm 0.00 in0.0 mm 0.00 in0.0 mm
03:35 AM 54.4°F12.4°C 50.6°F10.3°C 87% Calm Calm -- 29.91 in1012.9 mb 0.00 in0.0 mm 0.00 in0.0 mm 0.00 in0.0 mm
03:40 AM 54.5°F12.5°C 50.7°F10.4°C 87% Calm Calm -- 29.92 in1013.2 mb 0.00 in0.0 mm 0.00 in0.0 mm 0.00 in0.0 mm
03:45 AM 54.5°F12.5°C 50.7°F10.4°C 87% Calm Calm -- 29.92 in1013.2 mb 0.00 in0.0 mm 0.00 in0.0 mm 0.00 in0.0 mm
03:50 AM 54.6°F12.6°C 50.8°F10.4°C 87% Calm Calm -- 29.92 in1013.2 mb 0.00 in0.0 mm 0.00 in0.0 mm 0.00 in0.0 mm
03:55 AM 54.7°F12.6°C 50.9°F10.5°C 87% Calm Calm -- 29.92 in1013.2 mb 0.00 in0.0 mm 0.00 in0.0 mm 0.00 in0.0 mm
04:00 AM 54.7°F12.6°C 50.9°F10.5°C 87% Calm Calm -- 29.92 in1013.2 mb 0.00 in0.0 mm 0.00 in0.0 mm 0.00 in0.0 mm
04:05 AM 54.7°F12.6°C 50.9°F10.5°C 87% Calm Calm -- 29.92 in1013.2 mb 0.00 in0.0 mm 0.00 in0.0 mm 0.00 in0.0 mm
04:10 AM 54.7°F12.6°C 50.9°F10.5°C 87% Calm Calm -- 29.92 in1013.2 mb 0.00 in0.0 mm 0.00 in0.0 mm 0.00 in0.0 mm
04:15 AM 54.7°F12.6°C 50.9°F10.5°C 87% Calm Calm -- 29.92 in1013.2 mb 0.00 in0.0 mm 0.00 in0.0 mm 0.00 in0.0 mm
04:20 AM 54.6°F12.6°C 50.8°F10.4°C 87% Calm Calm -- 29.93 in1013.5 mb 0.00 in0.0 mm 0.00 in0.0 mm 0.00 in0.0 mm
04:25 AM 54.4°F12.4°C 50.6°F10.3°C 87% Calm Calm -- 29.93 in1013.5 mb 0.00 in0.0 mm 0.00 in0.0 mm 0.00 in0.0 mm
04:30 AM 54.1°F12.3°C 50.5°F10.3°C 88% Calm Calm -- 29.93 in1013.5 mb 0.00 in0.0 mm 0.00 in0.0 mm 0.00 in0.0 mm
04:35 AM 54.0°F12.2°C 50.7°F10.4°C 89% Calm Calm -- 29.93 in1013.5 mb 0.00 in0.0 mm 0.00 in0.0 mm 0.00 in0.0 mm
04:40 AM 53.8°F12.1°C 50.7°F10.4°C 89% Calm Calm -- 29.93 in1013.5 mb 0.00 in0.0 mm 0.00 in0.0 mm 0.00 in0.0 mm
04:45 AM 53.7°F12.1°C 50.8°F10.4°C 90% Calm Calm -- 29.93 in1013.5 mb 0.00 in0.0 mm 0.00 in0.0 mm 0.00 in0.0 mm
04:50 AM 53.4°F11.9°C 50.6°F10.3°C 90% Calm Calm -- 29.93 in1013.5 mb 0.00 in0.0 mm 0.00 in0.0 mm 0.00 in0.0 mm
04:55 AM 53.2°F11.8°C 50.5°F10.3°C 90% Calm Calm -- 29.93 in1013.5 mb 0.00 in0.0 mm 0.00 in0.0 mm 0.00 in0.0 mm
05:00 AM 52.9°F11.6°C 50.6°F10.3°C 92% Calm Calm -- 29.94 in1013.9 mb 0.00 in0.0 mm 0.00 in0.0 mm 0.00 in0.0 mm
05:05 AM 52.8°F11.6°C 50.6°F10.3°C 92% Calm Calm -- 29.94 in1013.9 mb 0.00 in0.0 mm 0.00 in0.0 mm 0.00 in0.0 mm
05:10 AM 52.7°F11.5°C 50.7°F10.4°C 93% Calm Calm -- 29.94 in1013.9 mb 0.00 in0.0 mm 0.00 in0.0 mm 0.00 in0.0 mm
05:15 AM 52.5°F11.4°C 50.5°F10.3°C 93% Calm Calm -- 29.94 in1013.9 mb 0.00 in0.0 mm 0.00 in0.0 mm 0.00 in0.0 mm
05:20 AM 52.5°F11.4°C 50.7°F10.4°C 94% Calm Calm -- 29.94 in1013.9 mb 0.00 in0.0 mm 0.00 in0.0 mm 0.00 in0.0 mm
05:25 AM 52.5°F11.4°C 50.8°F10.4°C 94% Calm Calm -- 29.94 in1013.9 mb 0.00 in0.0 mm 0.00 in0.0 mm 0.00 in0.0 mm
05:30 AM 52.5°F11.4°C 50.8°F10.4°C 94% Calm Calm -- 29.94 in1013.9 mb 0.00 in0.0 mm 0.00 in0.0 mm 0.00 in0.0 mm
05:35 AM 52.3°F11.3°C 50.7°F10.4°C 94% Calm Calm -- 29.94 in1013.9 mb 0.00 in0.0 mm 0.00 in0.0 mm 0.00 in0.0 mm
05:40 AM 52.3°F11.3°C 50.9°F10.5°C 95% Calm Calm -- 29.95 in1014.2 mb 0.00 in0.0 mm 0.00 in0.0 mm 0.00 in0.0 mm
05:45 AM 52.3°F11.3°C 50.9°F10.5°C 95% Calm Calm -- 29.95 in1014.2 mb 0.00 in0.0 mm 0.00 in0.0 mm 0.00 in0.0 mm
05:50 AM 52.3°F11.3°C 50.9°F10.5°C 95% Calm Calm -- 29.95 in1014.2 mb 0.00 in0.0 mm 0.00 in0.0 mm 0.00 in0.0 mm
05:55 AM 52.3°F11.3°C 50.9°F10.5°C 95% Calm Calm -- 29.95 in1014.2 mb 0.00 in0.0 mm 0.00 in0.0 mm 0.00 in0.0 mm
06:00 AM 52.5°F11.4°C 51.1°F10.6°C 95% Calm Calm -- 29.95 in1014.2 mb 0.00 in0.0 mm 0.00 in0.0 mm 0.00 in0.0 mm
06:05 AM 52.5°F11.4°C 51.1°F10.6°C 95% Calm Calm -- 29.95 in1014.2 mb 0.00 in0.0 mm 0.00 in0.0 mm 0.00 in0.0 mm
06:10 AM 52.5°F11.4°C 51.4°F10.8°C 96% Calm Calm -- 29.95 in1014.2 mb 0.00 in0.0 mm 0.00 in0.0 mm 0.00 in0.0 mm
06:15 AM 52.7°F11.5°C 51.6°F10.9°C 96% Calm Calm -- 29.95 in1014.2 mb 0.00 in0.0 mm 0.00 in0.0 mm 0.00 in0.0 mm
06:20 AM 53.0°F11.7°C 51.9°F11.1°C 96% Calm Calm -- 29.95 in1014.2 mb 0.00 in0.0 mm 0.00 in0.0 mm 0.00 in0.0 mm
06:25 AM 53.1°F11.7°C 52.0°F11.1°C 96% Calm Calm -- 29.95 in1014.2 mb 0.00 in0.0 mm 0.00 in0.0 mm 0.00 in0.0 mm
06:30 AM 53.2°F11.8°C 52.0°F11.1°C 96% Calm Calm -- 29.95 in1014.2 mb 0.00 in0.0 mm 0.00 in0.0 mm 0.00 in0.0 mm
06:35 AM 53.3°F11.8°C 52.2°F11.2°C 96% Calm Calm -- 29.95 in1014.2 mb 0.00 in0.0 mm 0.00 in0.0 mm 0.00 in0.0 mm
06:40 AM 53.5°F11.9°C 52.5°F11.4°C 97% Calm Calm -- 29.96 in1014.6 mb 0.00 in0.0 mm 0.00 in0.0 mm 0.00 in0.0 mm
06:45 AM 53.8°F12.1°C 52.9°F11.6°C 97% Calm Calm -- 29.96 in1014.6 mb 0.00 in0.0 mm 0.00 in0.0 mm 0.00 in0.0 mm
06:50 AM 54.0°F12.2°C 53.1°F11.7°C 97% Calm Calm -- 29.96 in1014.6 mb 0.00 in0.0 mm 0.00 in0.0 mm 0.00 in0.0 mm
06:55 AM 54.4°F12.4°C 53.1°F11.7°C 95% 0.2 mph ESE0.3 kmh ESE 2.2 mph3.5 kmh 29.96 in1014.6 mb 0.00 in0.0 mm 0.00 in0.0 mm 0.00 in0.0 mm
07:00 AM 54.9°F12.7°C 53.0°F11.7°C 93% 0.2 mph ESE0.3 kmh ESE 1.7 mph2.7 kmh 29.96 in1014.6 mb 0.00 in0.0 mm 0.00 in0.0 mm 0.00 in0.0 mm
07:05 AM 55.7°F13.2°C 53.2°F11.8°C 91% 0.1 mph NE0.2 kmh NE 1.1 mph1.8 kmh 29.96 in1014.6 mb 0.00 in0.0 mm 0.00 in0.0 mm 0.00 in0.0 mm
07:10 AM 56.5°F13.6°C 53.3°F11.8°C 89% 0.1 mph 0.2 kmh 1.1 mph1.8 kmh 29.96 in1014.6 mb 0.00 in0.0 mm 0.00 in0.0 mm 0.00 in0.0 mm
07:15 AM 57.0°F13.9°C 53.4°F11.9°C 88% Calm Calm -- 29.95 in1014.2 mb 0.00 in0.0 mm 0.00 in0.0 mm 0.00 in0.0 mm
07:20 AM 59.1°F15.1°C 53.4°F11.9°C 82% 0.8 mph ESE1.3 kmh ESE 2.2 mph3.5 kmh 29.95 in1014.2 mb 0.00 in0.0 mm 0.00 in0.0 mm 0.00 in0.0 mm
07:25 AM 61.3°F16.3°C 53.5°F11.9°C 76% 0.3 mph NNE0.5 kmh NNE 1.7 mph2.7 kmh 29.95 in1014.2 mb 0.00 in0.0 mm 0.00 in0.0 mm 0.00 in0.0 mm
07:30 AM 62.4°F16.9°C 53.9°F12.2°C 74% 0.2 mph SE0.3 kmh SE 2.2 mph3.5 kmh 29.95 in1014.2 mb 0.00 in0.0 mm 0.00 in0.0 mm 0.00 in0.0 mm
07:35 AM 62.9°F17.2°C 53.9°F12.2°C 73% Calm Calm -- 29.95 in1014.2 mb 0.00 in0.0 mm 0.00 in0.0 mm 0.00 in0.0 mm
07:40 AM 63.5°F17.5°C 54.0°F12.2°C 71% 0.1 mph NNW0.2 kmh NNW 1.1 mph1.8 kmh 29.96 in1014.6 mb 0.00 in0.0 mm 0.00 in0.0 mm 0.00 in0.0 mm
07:45 AM 64.0°F17.8°C 54.3°F12.4°C 71% Calm Calm -- 29.96 in1014.6 mb 0.00 in0.0 mm 0.00 in0.0 mm 0.00 in0.0 mm
07:50 AM 64.0°F17.8°C 54.4°F12.4°C 71% Calm Calm -- 29.96 in1014.6 mb 0.00 in0.0 mm 0.00 in0.0 mm 0.00 in0.0 mm
07:55 AM 64.2°F17.9°C 54.2°F12.3°C 70% 0.3 mph SSE0.5 kmh SSE 2.2 mph3.5 kmh 29.96 in1014.6 mb 0.00 in0.0 mm 0.00 in0.0 mm 0.00 in0.0 mm
08:00 AM 65.2°F18.4°C 54.4°F12.4°C 68% Calm Calm -- 29.96 in1014.6 mb 0.00 in0.0 mm 0.00 in0.0 mm 0.00 in0.0 mm
08:05 AM 65.6°F18.7°C 54.1°F12.3°C 66% 1.3 mph W2.1 kmh W 3.7 mph6.0 kmh 29.96 in1014.6 mb 0.00 in0.0 mm 0.00 in0.0 mm 0.00 in0.0 mm
08:10 AM 65.8°F18.8°C 53.8°F12.1°C 65% 0.9 mph E1.4 kmh E 2.7 mph4.3 kmh 29.96 in1014.6 mb 0.00 in0.0 mm 0.00 in0.0 mm 0.00 in0.0 mm
08:15 AM 65.9°F18.8°C 53.8°F12.1°C 65% 0.8 mph WNW1.3 kmh WNW 2.2 mph3.5 kmh 29.96 in1014.6 mb 0.00 in0.0 mm 0.00 in0.0 mm 0.00 in0.0 mm
08:20 AM 66.3°F19.1°C 54.0°F12.2°C 64% 0.6 mph NW1.0 kmh NW 2.2 mph3.5 kmh 29.96 in1014.6 mb 0.00 in0.0 mm 0.00 in0.0 mm 0.00 in0.0 mm
08:25 AM 66.5°F19.2°C 53.9°F12.2°C 64% 1.5 mph SE2.4 kmh SE 4.2 mph6.8 kmh 29.96 in1014.6 mb 0.00 in0.0 mm 0.00 in0.0 mm 0.00 in0.0 mm
08:30 AM 66.8°F19.3°C 53.5°F11.9°C 62% 1.8 mph ESE2.9 kmh ESE 4.2 mph6.8 kmh 29.96 in1014.6 mb 0.00 in0.0 mm 0.00 in0.0 mm 0.00 in0.0 mm
08:35 AM 67.4°F19.7°C 53.9°F12.2°C 62% 1.4 mph NW2.3 kmh NW 3.7 mph6.0 kmh 29.96 in1014.6 mb 0.00 in0.0 mm 0.00 in0.0 mm 0.00 in0.0 mm
08:40 AM 67.5°F19.7°C 53.8°F12.1°C 62% 1.0 mph SE1.6 kmh SE 2.7 mph4.3 kmh 29.96 in1014.6 mb 0.00 in0.0 mm 0.00 in0.0 mm 0.00 in0.0 mm
08:45 AM 67.9°F19.9°C 53.8°F12.1°C 61% 1.0 mph ESE1.6 kmh ESE 2.7 mph4.3 kmh 29.96 in1014.6 mb 0.00 in0.0 mm 0.00 in0.0 mm 0.00 in0.0 mm
08:50 AM 68.3°F20.2°C 53.9°F12.2°C 60% 0.7 mph WNW1.1 kmh WNW 2.2 mph3.5 kmh 29.96 in1014.6 mb 0.00 in0.0 mm 0.00 in0.0 mm 0.00 in0.0 mm
08:55 AM 68.6°F20.3°C 53.4°F11.9°C 58% 1.3 mph SW2.1 kmh SW 4.2 mph6.8 kmh 29.96 in1014.6 mb 0.00 in0.0 mm 0.00 in0.0 mm 0.00 in0.0 mm
09:00 AM 68.5°F20.3°C 53.6°F12.0°C 59% 1.0 mph W1.6 kmh W 4.2 mph6.8 kmh 29.96 in1014.6 mb 0.00 in0.0 mm 0.00 in0.0 mm 0.00 in0.0 mm
09:05 AM 68.7°F20.4°C 53.4°F11.9°C 58% 1.7 mph NW2.7 kmh NW 3.2 mph5.1 kmh 29.96 in1014.6 mb 0.00 in0.0 mm 0.00 in0.0 mm 0.00 in0.0 mm
09:10 AM 69.2°F20.7°C 53.3°F11.8°C 57% 1.2 mph N1.9 kmh N 2.7 mph4.3 kmh 29.96 in1014.6 mb 0.00 in0.0 mm 0.00 in0.0 mm 0.00 in0.0 mm
09:15 AM 70.0°F21.1°C 53.8°F12.1°C 56% 0.5 mph W0.8 kmh W 2.7 mph4.3 kmh 29.96 in1014.6 mb 0.00 in0.0 mm 0.00 in0.0 mm 0.00 in0.0 mm
09:20 AM 70.6°F21.4°C 53.7°F12.1°C 55% 0.7 mph NW1.1 kmh NW 2.7 mph4.3 kmh 29.96 in1014.6 mb 0.00 in0.0 mm 0.00 in0.0 mm 0.00 in0.0 mm
09:25 AM 71.4°F21.9°C 53.7°F12.1°C 54% 1.1 mph NW1.8 kmh NW 2.7 mph4.3 kmh 29.96 in1014.6 mb 0.00 in0.0 mm 0.00 in0.0 mm 0.00 in0.0 mm
09:30 AM 72.4°F22.4°C 54.2°F12.3°C 53% 0.7 mph W1.1 kmh W 1.7 mph2.7 kmh 29.96 in1014.6 mb 0.00 in0.0 mm 0.00 in0.0 mm 0.00 in0.0 mm
09:35 AM 72.2°F22.3°C 54.2°F12.3°C 53% 1.4 mph SW2.3 kmh SW 3.7 mph6.0 kmh 29.96 in1014.6 mb 0.00 in0.0 mm 0.00 in0.0 mm 0.00 in0.0 mm
09:40 AM 72.7°F22.6°C 54.5°F12.5°C 53% 0.8 mph WSW1.3 kmh WSW 2.7 mph4.3 kmh 29.96 in1014.6 mb 0.00 in0.0 mm 0.00 in0.0 mm 0.00 in0.0 mm
09:45 AM 73.3°F22.9°C 54.6°F12.6°C 52% 0.7 mph SSW1.1 kmh SSW 1.7 mph2.7 kmh 29.96 in1014.6 mb 0.00 in0.0 mm 0.00 in0.0 mm 0.00 in0.0 mm
09:50 AM 73.5°F23.1°C 56.5°F13.6°C 55% 1.0 mph WSW1.6 kmh WSW 3.7 mph6.0 kmh 29.96 in1014.6 mb 0.00 in0.0 mm 0.00 in0.0 mm 0.00 in0.0 mm
09:55 AM 73.3°F22.9°C 56.6°F13.7°C 56% 3.2 mph SW5.1 kmh SW 4.7 mph7.6 kmh 29.96 in1014.6 mb 0.00 in0.0 mm 0.00 in0.0 mm 0.00 in0.0 mm
10:00 AM 73.3°F22.9°C 57.0°F13.9°C 57% 2.0 mph SSW3.2 kmh SSW 3.2 mph5.1 kmh 29.96 in1014.6 mb 0.00 in0.0 mm 0.00 in0.0 mm 0.00 in0.0 mm
10:05 AM 73.4°F23.0°C 56.8°F13.8°C 56% 3.2 mph SW5.1 kmh SW 4.7 mph7.6 kmh 29.95 in1014.2 mb 0.00 in0.0 mm 0.00 in0.0 mm 0.00 in0.0 mm
10:10 AM 73.0°F22.8°C 57.2°F14.0°C 58% 2.9 mph SW4.7 kmh SW 5.3 mph8.5 kmh 29.95 in1014.2 mb 0.00 in0.0 mm 0.00 in0.0 mm 0.00 in0.0 mm
10:15 AM 73.4°F23.0°C 57.9°F14.4°C 58% 1.9 mph WSW3.1 kmh WSW 3.7 mph6.0 kmh 29.95 in1014.2 mb 0.00 in0.0 mm 0.00 in0.0 mm 0.00 in0.0 mm
10:20 AM 73.1°F22.8°C 58.1°F14.5°C 59% 3.3 mph SW5.3 kmh SW 5.8 mph9.3 kmh 29.95 in1014.2 mb 0.00 in0.0 mm 0.00 in0.0 mm 0.00 in0.0 mm
10:25 AM 72.3°F22.4°C 57.9°F14.4°C 61% 2.7 mph SW4.3 kmh SW 4.7 mph7.6 kmh 29.95 in1014.2 mb 0.00 in0.0 mm 0.00 in0.0 mm 0.00 in0.0 mm
10:30 AM 71.4°F21.9°C 58.0°F14.4°C 63% 2.8 mph SW4.5 kmh SW 5.8 mph9.3 kmh 29.94 in1013.9 mb 0.00 in0.0 mm 0.00 in0.0 mm 0.00 in0.0 mm
10:35 AM 71.3°F21.8°C 58.0°F14.4°C 63% 3.2 mph SW5.1 kmh SW 4.7 mph7.6 kmh 29.94 in1013.9 mb 0.00 in0.0 mm 0.00 in0.0 mm 0.00 in0.0 mm
10:40 AM 70.9°F21.6°C 58.0°F14.4°C 64% 3.7 mph SSW6.0 kmh SSW 6.3 mph10.1 kmh 29.94 in1013.9 mb 0.00 in0.0 mm 0.00 in0.0 mm 0.00 in0.0 mm
10:45 AM 71.4°F21.9°C 58.2°F14.6°C 63% 1.5 mph SW2.4 kmh SW 3.7 mph6.0 kmh 29.94 in1013.9 mb 0.00 in0.0 mm 0.00 in0.0 mm 0.00 in0.0 mm
10:50 AM 72.1°F22.3°C 58.5°F14.7°C 62% 3.7 mph SW6.0 kmh SW 5.3 mph8.5 kmh 29.94 in1013.9 mb 0.00 in0.0 mm 0.00 in0.0 mm 0.00 in0.0 mm
10:55 AM 72.3°F22.4°C 59.0°F15.0°C 63% 3.8 mph SW6.1 kmh SW 6.8 mph10.9 kmh 29.94 in1013.9 mb 0.00 in0.0 mm 0.00 in0.0 mm 0.00 in0.0 mm
11:00 AM 72.8°F22.7°C 58.9°F14.9°C 62% 3.3 mph SW5.3 kmh SW 4.7 mph7.6 kmh 29.94 in1013.9 mb 0.00 in0.0 mm 0.00 in0.0 mm 0.00 in0.0 mm
11:05 AM 73.1°F22.8°C 58.6°F14.8°C 60% 3.1 mph SW5.0 kmh SW 5.3 mph8.5 kmh 29.94 in1013.9 mb 0.00 in0.0 mm 0.00 in0.0 mm 0.00 in0.0 mm
11:10 AM 73.4°F23.0°C 58.6°F14.8°C 60% 2.9 mph SW4.7 kmh SW 4.2 mph6.8 kmh 29.94 in1013.9 mb 0.00 in0.0 mm 0.00 in0.0 mm 0.00 in0.0 mm
11:15 AM 73.2°F22.9°C 58.2°F14.6°C 60% 3.6 mph WSW5.8 kmh WSW 4.7 mph7.6 kmh 29.94 in1013.9 mb 0.00 in0.0 mm 0.00 in0.0 mm 0.00 in0.0 mm
11:20 AM 73.6°F23.1°C 58.5°F14.7°C 59% 3.5 mph W5.6 kmh W 4.7 mph7.6 kmh 29.94 in1013.9 mb 0.00 in0.0 mm 0.00 in0.0 mm 0.00 in0.0 mm
11:25 AM 73.7°F23.2°C 58.2°F14.6°C 58% 2.9 mph SW4.7 kmh SW 5.3 mph8.5 kmh 29.94 in1013.9 mb 0.00 in0.0 mm 0.00 in0.0 mm 0.00 in0.0 mm
11:30 AM 73.9°F23.3°C 58.1°F14.5°C 58% 3.4 mph WSW5.5 kmh WSW 6.3 mph10.1 kmh 29.93 in1013.5 mb 0.00 in0.0 mm 0.00 in0.0 mm 0.00 in0.0 mm
11:35 AM 74.1°F23.4°C 57.3°F14.1°C 56% 2.6 mph SW4.2 kmh SW 4.7 mph7.6 kmh 29.93 in1013.5 mb 0.00 in0.0 mm 0.00 in0.0 mm 0.00 in0.0 mm
11:40 AM 74.7°F23.7°C 57.8°F14.3°C 56% 2.6 mph W4.2 kmh W 3.2 mph5.1 kmh 29.93 in1013.5 mb 0.00 in0.0 mm 0.00 in0.0 mm 0.00 in0.0 mm
11:45 AM 75.0°F23.9°C 57.7°F14.3°C 55% 2.9 mph WSW4.7 kmh WSW 4.2 mph6.8 kmh 29.93 in1013.5 mb 0.00 in0.0 mm 0.00 in0.0 mm 0.00 in0.0 mm
11:50 AM 75.0°F23.9°C 57.6°F14.2°C 55% 3.2 mph WSW5.1 kmh WSW 5.8 mph9.3 kmh 29.93 in1013.5 mb 0.00 in0.0 mm 0.00 in0.0 mm 0.00 in0.0 mm
11:55 AM 75.2°F24.0°C 57.6°F14.2°C 54% 3.2 mph WSW5.1 kmh WSW 4.7 mph7.6 kmh 29.92 in1013.2 mb 0.00 in0.0 mm 0.00 in0.0 mm 0.00 in0.0 mm
12:00 PM 75.6°F24.2°C 57.8°F14.3°C 54% 2.9 mph SW4.7 kmh SW 4.2 mph6.8 kmh 29.92 in1013.2 mb 0.00 in0.0 mm 0.00 in0.0 mm 0.00 in0.0 mm
12:05 PM 75.7°F24.3°C 58.1°F14.5°C 54% 3.5 mph WSW5.6 kmh WSW 5.3 mph8.5 kmh 29.92 in1013.2 mb 0.00 in0.0 mm 0.00 in0.0 mm 0.00 in0.0 mm
12:10 PM 75.3°F24.1°C 58.2°F14.6°C 55% 3.5 mph SW5.6 kmh SW 5.8 mph9.3 kmh 29.92 in1013.2 mb 0.00 in0.0 mm 0.00 in0.0 mm 0.00 in0.0 mm
12:15 PM 75.4°F24.1°C 58.3°F14.6°C 55% 2.9 mph WSW4.7 kmh WSW 5.8 mph9.3 kmh 29.91 in1012.9 mb 0.00 in0.0 mm 0.00 in0.0 mm 0.00 in0.0 mm
12:20 PM 75.5°F24.2°C 57.5°F14.2°C 54% 4.0 mph SW6.4 kmh SW 6.3 mph10.1 kmh 29.91 in1012.9 mb 0.00 in0.0 mm 0.00 in0.0 mm 0.00 in0.0 mm
12:25 PM 75.7°F24.3°C 57.9°F14.4°C 54% 3.5 mph SW5.6 kmh SW 6.8 mph10.9 kmh 29.91 in1012.9 mb 0.00 in0.0 mm 0.00 in0.0 mm 0.00 in0.0 mm
12:30 PM 75.9°F24.4°C 58.8°F14.9°C 55% 3.3 mph WSW5.3 kmh WSW 4.7 mph7.6 kmh 29.90 in1012.5 mb 0.00 in0.0 mm 0.00 in0.0 mm 0.00 in0.0 mm
12:35 PM 75.4°F24.1°C 58.9°F14.9°C 56% 3.7 mph SW6.0 kmh SW 5.3 mph8.5 kmh 29.90 in1012.5 mb 0.00 in0.0 mm 0.00 in0.0 mm 0.00 in0.0 mm
12:40 PM 75.5°F24.2°C 57.6°F14.2°C 54% 4.1 mph SW6.6 kmh SW 7.8 mph12.6 kmh 29.90 in1012.5 mb 0.00 in0.0 mm 0.00 in0.0 mm 0.00 in0.0 mm
12:45 PM 75.8°F24.3°C 57.2°F14.0°C 53% 3.1 mph SW5.0 kmh SW 4.2 mph6.8 kmh 29.90 in1012.5 mb 0.00 in0.0 mm 0.00 in0.0 mm 0.00 in0.0 mm
12:50 PM 76.7°F24.8°C 57.3°F14.1°C 51% 4.7 mph SW7.6 kmh SW 6.8 mph10.9 kmh 29.90 in1012.5 mb 0.00 in0.0 mm 0.00 in0.0 mm 0.00 in0.0 mm
12:55 PM 77.2°F25.1°C 58.6°F14.8°C 53% 3.8 mph WSW6.1 kmh WSW 7.3 mph11.7 kmh 29.89 in1012.2 mb 0.00 in0.0 mm 0.00 in0.0 mm 0.00 in0.0 mm
01:00 PM 76.9°F24.9°C 57.8°F14.3°C 52% 3.6 mph SW5.8 kmh SW 6.3 mph10.1 kmh 29.89 in1012.2 mb 0.00 in0.0 mm 0.00 in0.0 mm 0.00 in0.0 mm
01:05 PM 76.7°F24.8°C 58.8°F14.9°C 54% 3.8 mph SW6.1 kmh SW 5.3 mph8.5 kmh 29.89 in1012.2 mb 0.00 in0.0 mm 0.00 in0.0 mm 0.00 in0.0 mm
01:10 PM 76.9°F24.9°C 58.6°F14.8°C 53% 4.2 mph WSW6.8 kmh WSW 5.8 mph9.3 kmh 29.89 in1012.2 mb 0.00 in0.0 mm 0.00 in0.0 mm 0.00 in0.0 mm
01:15 PM 76.9°F24.9°C 58.5°F14.7°C 53% 3.7 mph SW6.0 kmh SW 4.7 mph7.6 kmh 29.89 in1012.2 mb 0.00 in0.0 mm 0.00 in0.0 mm 0.00 in0.0 mm
01:20 PM 76.6°F24.8°C 58.8°F14.9°C 54% 4.1 mph W6.6 kmh W 5.8 mph9.3 kmh 29.89 in1012.2 mb 0.00 in0.0 mm 0.00 in0.0 mm 0.00 in0.0 mm
01:25 PM 76.4°F24.7°C 58.4°F14.7°C 54% 3.5 mph WSW5.6 kmh WSW 4.7 mph7.6 kmh 29.89 in1012.2 mb 0.00 in0.0 mm 0.00 in0.0 mm 0.00 in0.0 mm
01:30 PM 76.4°F24.7°C 59.2°F15.1°C 55% 3.6 mph SW5.8 kmh SW 6.8 mph10.9 kmh 29.89 in1012.2 mb 0.00 in0.0 mm 0.00 in0.0 mm 0.00 in0.0 mm
01:35 PM 76.7°F24.8°C 59.5°F15.3°C 56% 2.7 mph SW4.3 kmh SW 4.2 mph6.8 kmh 29.89 in1012.2 mb 0.00 in0.0 mm 0.00 in0.0 mm 0.00 in0.0 mm
01:40 PM 76.6°F24.8°C 60.4°F15.8°C 57% 2.2 mph SW3.5 kmh SW 3.7 mph6.0 kmh 29.89 in1012.2 mb 0.00 in0.0 mm 0.00 in0.0 mm 0.00 in0.0 mm
01:45 PM 76.9°F24.9°C 60.6°F15.9°C 57% 2.4 mph SW3.9 kmh SW 3.7 mph6.0 kmh 29.89 in1012.2 mb 0.00 in0.0 mm 0.00 in0.0 mm 0.00 in0.0 mm
01:50 PM 76.2°F24.6°C 60.3°F15.7°C 58% 2.3 mph SW3.7 kmh SW 3.7 mph6.0 kmh 29.88 in1011.9 mb 0.00 in0.0 mm 0.00 in0.0 mm 0.00 in0.0 mm
01:55 PM 76.7°F24.8°C 60.1°F15.6°C 57% 2.5 mph WSW4.0 kmh WSW 4.7 mph7.6 kmh 29.88 in1011.9 mb 0.00 in0.0 mm 0.00 in0.0 mm 0.00 in0.0 mm
02:00 PM 76.6°F24.8°C 60.9°F16.1°C 58% 1.8 mph SW2.9 kmh SW 2.7 mph4.3 kmh 29.88 in1011.9 mb 0.00 in0.0 mm 0.00 in0.0 mm 0.00 in0.0 mm
02:05 PM 76.6°F24.8°C 60.7°F15.9°C 58% 3.1 mph WSW5.0 kmh WSW 4.7 mph7.6 kmh 29.88 in1011.9 mb 0.00 in0.0 mm 0.00 in0.0 mm 0.00 in0.0 mm
02:10 PM 76.5°F24.7°C 60.7°F15.9°C 58% 3.7 mph SW6.0 kmh SW 5.3 mph8.5 kmh 29.88 in1011.9 mb 0.00 in0.0 mm 0.00 in0.0 mm 0.00 in0.0 mm
02:15 PM 76.1°F24.5°C 60.6°F15.9°C 59% 3.7 mph WSW6.0 kmh WSW 6.8 mph10.9 kmh 29.87 in1011.5 mb 0.00 in0.0 mm 0.00 in0.0 mm 0.00 in0.0 mm
02:20 PM 75.8°F24.3°C 60.1°F15.6°C 58% 3.9 mph SW6.3 kmh SW 5.8 mph9.3 kmh 29.87 in1011.5 mb 0.00 in0.0 mm 0.00 in0.0 mm 0.00 in0.0 mm
02:25 PM 75.6°F24.2°C 59.8°F15.4°C 58% 4.0 mph SW6.4 kmh SW 5.8 mph9.3 kmh 29.87 in1011.5 mb 0.00 in0.0 mm 0.00 in0.0 mm 0.00 in0.0 mm
02:30 PM 75.5°F24.2°C 60.0°F15.6°C 59% 4.4 mph SW7.1 kmh SW 6.8 mph10.9 kmh 29.87 in1011.5 mb 0.00 in0.0 mm 0.00 in0.0 mm 0.00 in0.0 mm
02:35 PM 75.3°F24.1°C 60.7°F15.9°C 60% 3.7 mph SW6.0 kmh SW 5.8 mph9.3 kmh 29.87 in1011.5 mb 0.00 in0.0 mm 0.00 in0.0 mm 0.00 in0.0 mm
02:40 PM 75.5°F24.2°C 60.9°F16.1°C 60% 3.8 mph SW6.1 kmh SW 5.3 mph8.5 kmh 29.87 in1011.5 mb 0.00 in0.0 mm 0.00 in0.0 mm 0.00 in0.0 mm
02:45 PM 75.1°F23.9°C 61.2°F16.2°C 62% 3.3 mph SW5.3 kmh SW 6.3 mph10.1 kmh 29.87 in1011.5 mb 0.00 in0.0 mm 0.00 in0.0 mm 0.00 in0.0 mm
02:50 PM 75.1°F23.9°C 61.2°F16.2°C 62% 3.4 mph WSW5.5 kmh WSW 6.3 mph10.1 kmh 29.87 in1011.5 mb 0.00 in0.0 mm 0.00 in0.0 mm 0.00 in0.0 mm
02:55 PM 75.1°F23.9°C 61.0°F16.1°C 62% 3.3 mph SSW5.3 kmh SSW 5.8 mph9.3 kmh 29.86 in1011.2 mb 0.00 in0.0 mm 0.00 in0.0 mm 0.00 in0.0 mm
03:00 PM 74.7°F23.7°C 60.8°F16.0°C 62% 3.3 mph SW5.3 kmh SW 5.3 mph8.5 kmh 29.86 in1011.2 mb 0.00 in0.0 mm 0.00 in0.0 mm 0.00 in0.0 mm
03:05 PM 74.7°F23.7°C 60.8°F16.0°C 62% 3.2 mph SW5.1 kmh SW 6.3 mph10.1 kmh 29.86 in1011.2 mb 0.00 in0.0 mm 0.00 in0.0 mm 0.00 in0.0 mm
03:10 PM 74.4°F23.6°C 60.7°F15.9°C 62% 2.9 mph SW4.7 kmh SW 5.3 mph8.5 kmh 29.86 in1011.2 mb 0.00 in0.0 mm 0.00 in0.0 mm 0.00 in0.0 mm
03:15 PM 74.3°F23.5°C 61.8°F16.6°C 65% 2.4 mph SW3.9 kmh SW 3.7 mph6.0 kmh 29.86 in1011.2 mb 0.00 in0.0 mm 0.00 in0.0 mm 0.00 in0.0 mm
03:20 PM 74.3°F23.5°C 61.6°F16.4°C 65% 3.3 mph SW5.3 kmh SW 6.8 mph10.9 kmh 29.86 in1011.2 mb 0.00 in0.0 mm 0.00 in0.0 mm 0.00 in0.0 mm
03:25 PM 73.7°F23.2°C 61.1°F16.2°C 65% 3.8 mph SW6.1 kmh SW 6.8 mph10.9 kmh 29.86 in1011.2 mb 0.00 in0.0 mm 0.00 in0.0 mm 0.00 in0.0 mm
03:30 PM 73.4°F23.0°C 61.3°F16.3°C 66% 3.6 mph SW5.8 kmh SW 6.8 mph10.9 kmh 29.86 in1011.2 mb 0.00 in0.0 mm 0.00 in0.0 mm 0.00 in0.0 mm
03:35 PM 73.4°F23.0°C 61.3°F16.3°C 66% 3.0 mph SW4.8 kmh SW 5.3 mph8.5 kmh 29.86 in1011.2 mb 0.00 in0.0 mm 0.00 in0.0 mm 0.00 in0.0 mm
03:40 PM 73.5°F23.1°C 60.6°F15.9°C 64% 3.6 mph WSW5.8 kmh WSW 5.8 mph9.3 kmh 29.86 in1011.2 mb 0.00 in0.0 mm 0.00 in0.0 mm 0.00 in0.0 mm
03:45 PM 73.6°F23.1°C 60.5°F15.8°C 64% 2.9 mph W4.7 kmh W 5.3 mph8.5 kmh 29.86 in1011.2 mb 0.00 in0.0 mm 0.00 in0.0 mm 0.00 in0.0 mm
03:50 PM 73.3°F22.9°C 61.9°F16.6°C 67% 3.5 mph WSW5.6 kmh WSW 5.8 mph9.3 kmh 29.86 in1011.2 mb 0.00 in0.0 mm 0.00 in0.0 mm 0.00 in0.0 mm
03:55 PM 73.2°F22.9°C 61.9°F16.6°C 68% 2.6 mph SW4.2 kmh SW 4.2 mph6.8 kmh 29.86 in1011.2 mb 0.00 in0.0 mm 0.00 in0.0 mm 0.00 in0.0 mm
04:00 PM 73.0°F22.8°C 61.6°F16.4°C 67% 2.6 mph WSW4.2 kmh WSW 4.2 mph6.8 kmh 29.86 in1011.2 mb 0.00 in0.0 mm 0.00 in0.0 mm 0.00 in0.0 mm
04:05 PM 73.1°F22.8°C 61.9°F16.6°C 68% 2.5 mph WSW4.0 kmh WSW 3.7 mph6.0 kmh 29.86 in1011.2 mb 0.00 in0.0 mm 0.00 in0.0 mm 0.00 in0.0 mm
04:10 PM 72.8°F22.7°C 61.6°F16.4°C 68% 3.1 mph WSW5.0 kmh WSW 6.3 mph10.1 kmh 29.86 in1011.2 mb 0.00 in0.0 mm 0.00 in0.0 mm 0.00 in0.0 mm
04:15 PM 72.8°F22.7°C 61.6°F16.4°C 68% 3.1 mph WSW5.0 kmh WSW 5.3 mph8.5 kmh 29.86 in1011.2 mb 0.00 in0.0 mm 0.00 in0.0 mm 0.00 in0.0 mm
04:20 PM 72.5°F22.5°C 61.7°F16.5°C 69% 3.6 mph SW5.8 kmh SW 5.3 mph8.5 kmh 29.86 in1011.2 mb 0.00 in0.0 mm 0.00 in0.0 mm 0.00 in0.0 mm
04:25 PM 72.4°F22.4°C 62.4°F16.9°C 71% 3.0 mph SW4.8 kmh SW 5.3 mph8.5 kmh 29.86 in1011.2 mb 0.00 in0.0 mm 0.00 in0.0 mm 0.00 in0.0 mm
04:30 PM 72.1°F22.3°C 62.2°F16.8°C 71% 4.3 mph SW6.9 kmh SW 6.3 mph10.1 kmh 29.86 in1011.2 mb 0.00 in0.0 mm 0.00 in0.0 mm 0.00 in0.0 mm
04:35 PM 72.1°F22.3°C 62.2°F16.8°C 71% 4.4 mph SW7.1 kmh SW 6.3 mph10.1 kmh 29.86 in1011.2 mb 0.00 in0.0 mm 0.00 in0.0 mm 0.00 in0.0 mm
04:40 PM 71.8°F22.1°C 62.4°F16.9°C 72% 4.5 mph SW7.2 kmh SW 7.3 mph11.7 kmh 29.87 in1011.5 mb 0.00 in0.0 mm 0.00 in0.0 mm 0.00 in0.0 mm
04:45 PM 71.8°F22.1°C 62.8°F17.1°C 73% 4.0 mph SW6.4 kmh SW 5.8 mph9.3 kmh 29.87 in1011.5 mb 0.00 in0.0 mm 0.00 in0.0 mm 0.00 in0.0 mm
04:50 PM 71.7°F22.1°C 63.2°F17.3°C 74% 3.1 mph SW5.0 kmh SW 5.8 mph9.3 kmh 29.87 in1011.5 mb 0.00 in0.0 mm 0.00 in0.0 mm 0.00 in0.0 mm
04:55 PM 71.4°F21.9°C 63.1°F17.3°C 75% 4.1 mph SW6.6 kmh SW 6.3 mph10.1 kmh 29.87 in1011.5 mb 0.00 in0.0 mm 0.00 in0.0 mm 0.00 in0.0 mm
05:00 PM 71.4°F21.9°C 62.4°F16.9°C 73% 3.9 mph WSW6.3 kmh WSW 6.8 mph10.9 kmh 29.87 in1011.5 mb 0.00 in0.0 mm 0.00 in0.0 mm 0.00 in0.0 mm
05:05 PM 71.4°F21.9°C 62.8°F17.1°C 74% 4.6 mph SW7.4 kmh SW 8.9 mph14.3 kmh 29.87 in1011.5 mb 0.00 in0.0 mm 0.00 in0.0 mm 0.00 in0.0 mm
05:10 PM 71.2°F21.8°C 62.9°F17.2°C 75% 3.8 mph SW6.1 kmh SW 5.8 mph9.3 kmh 29.87 in1011.5 mb 0.00 in0.0 mm 0.00 in0.0 mm 0.00 in0.0 mm
05:15 PM 71.1°F21.7°C 62.8°F17.1°C 75% 3.6 mph SW5.8 kmh SW 5.8 mph9.3 kmh 29.87 in1011.5 mb 0.00 in0.0 mm 0.00 in0.0 mm 0.00 in0.0 mm
05:20 PM 70.9°F21.6°C 63.3°F17.4°C 77% 4.4 mph WSW7.1 kmh WSW 6.8 mph10.9 kmh 29.87 in1011.5 mb 0.00 in0.0 mm 0.00 in0.0 mm 0.00 in0.0 mm
05:25 PM 70.7°F21.5°C 63.5°F17.5°C 78% 2.7 mph WSW4.3 kmh WSW 4.7 mph7.6 kmh 29.87 in1011.5 mb 0.00 in0.0 mm 0.00 in0.0 mm 0.00 in0.0 mm
05:30 PM 70.5°F21.4°C 63.1°F17.3°C 77% 3.0 mph W4.8 kmh W 4.7 mph7.6 kmh 29.87 in1011.5 mb 0.00 in0.0 mm 0.00 in0.0 mm 0.00 in0.0 mm
05:35 PM 70.5°F21.4°C 63.1°F17.3°C 78% 4.3 mph SW6.9 kmh SW 5.8 mph9.3 kmh 29.87 in1011.5 mb 0.00 in0.0 mm 0.00 in0.0 mm 0.00 in0.0 mm
05:40 PM 70.3°F21.3°C 63.4°F17.4°C 79% 4.0 mph SW6.4 kmh SW 7.3 mph11.7 kmh 29.87 in1011.5 mb 0.00 in0.0 mm 0.00 in0.0 mm 0.00 in0.0 mm
05:45 PM 70.2°F21.2°C 63.4°F17.4°C 79% 3.1 mph WSW5.0 kmh WSW 6.3 mph10.1 kmh 29.87 in1011.5 mb 0.00 in0.0 mm 0.00 in0.0 mm 0.00 in0.0 mm
05:50 PM 70.0°F21.1°C 63.2°F17.3°C 79% 3.3 mph SW5.3 kmh SW 5.8 mph9.3 kmh 29.88 in1011.9 mb 0.00 in0.0 mm 0.00 in0.0 mm 0.00 in0.0 mm
05:55 PM 70.0°F21.1°C 63.3°F17.4°C 79% 3.7 mph WSW6.0 kmh WSW 5.8 mph9.3 kmh 29.88 in1011.9 mb 0.00 in0.0 mm 0.00 in0.0 mm 0.00 in0.0 mm
06:00 PM 69.8°F21.0°C 63.4°F17.4°C 80% 3.0 mph WSW4.8 kmh WSW 6.8 mph10.9 kmh 29.88 in1011.9 mb 0.00 in0.0 mm 0.00 in0.0 mm 0.00 in0.0 mm
06:05 PM 69.8°F21.0°C 63.3°F17.4°C 80% 3.0 mph SW4.8 kmh SW 4.7 mph7.6 kmh 29.88 in1011.9 mb 0.00 in0.0 mm 0.00 in0.0 mm 0.00 in0.0 mm
06:10 PM 69.6°F20.9°C 63.1°F17.3°C 80% 4.0 mph SW6.4 kmh SW 6.3 mph10.1 kmh 29.88 in1011.9 mb 0.00 in0.0 mm 0.00 in0.0 mm 0.00 in0.0 mm
06:15 PM 69.5°F20.8°C 63.3°F17.4°C 81% 3.2 mph SW5.1 kmh SW 4.7 mph7.6 kmh 29.88 in1011.9 mb 0.00 in0.0 mm 0.00 in0.0 mm 0.00 in0.0 mm
06:20 PM 69.4°F20.8°C 63.3°F17.4°C 81% 2.7 mph WSW4.3 kmh WSW 4.7 mph7.6 kmh 29.88 in1011.9 mb 0.00 in0.0 mm 0.00 in0.0 mm 0.00 in0.0 mm
06:25 PM 69.4°F20.8°C 63.5°F17.5°C 82% 3.1 mph SW5.0 kmh SW 4.7 mph7.6 kmh 29.88 in1011.9 mb 0.00 in0.0 mm 0.00 in0.0 mm 0.00 in0.0 mm
06:30 PM 69.3°F20.7°C 63.8°F17.7°C 83% 2.5 mph SW4.0 kmh SW 4.7 mph7.6 kmh 29.89 in1012.2 mb 0.00 in0.0 mm 0.00 in0.0 mm 0.00 in0.0 mm
06:35 PM 69.3°F20.7°C 63.7°F17.6°C 82% 2.5 mph SW4.0 kmh SW 4.7 mph7.6 kmh 29.89 in1012.2 mb 0.00 in0.0 mm 0.00 in0.0 mm 0.00 in0.0 mm
06:40 PM 69.3°F20.7°C 63.6°F17.6°C 82% 2.6 mph SW4.2 kmh SW 5.8 mph9.3 kmh 29.89 in1012.2 mb 0.00 in0.0 mm 0.00 in0.0 mm 0.00 in0.0 mm
06:45 PM 69.2°F20.7°C 63.5°F17.5°C 82% 2.2 mph SW3.5 kmh SW 3.7 mph6.0 kmh 29.88 in1011.9 mb 0.00 in0.0 mm 0.00 in0.0 mm 0.00 in0.0 mm
06:50 PM 69.1°F20.6°C 63.4°F17.4°C 82% 2.2 mph SW3.5 kmh SW 3.7 mph6.0 kmh 29.88 in1011.9 mb 0.00 in0.0 mm 0.00 in0.0 mm 0.00 in0.0 mm
06:55 PM 69.1°F20.6°C 63.7°F17.6°C 83% 1.9 mph SW3.1 kmh SW 4.2 mph6.8 kmh 29.89 in1012.2 mb 0.00 in0.0 mm 0.00 in0.0 mm 0.00 in0.0 mm
07:00 PM 68.9°F20.5°C 63.5°F17.5°C 83% 2.1 mph SW3.4 kmh SW 5.8 mph9.3 kmh 29.89 in1012.2 mb 0.00 in0.0 mm 0.00 in0.0 mm 0.00 in0.0 mm
07:05 PM 68.9°F20.5°C 63.5°F17.5°C 83% 3.0 mph WSW4.8 kmh WSW 6.3 mph10.1 kmh 29.89 in1012.2 mb 0.00 in0.0 mm 0.00 in0.0 mm 0.00 in0.0 mm
07:10 PM 68.9°F20.5°C 63.5°F17.5°C 83% 2.5 mph WSW4.0 kmh WSW 6.8 mph10.9 kmh 29.89 in1012.2 mb 0.00 in0.0 mm 0.00 in0.0 mm 0.00 in0.0 mm
07:15 PM 68.9°F20.5°C 63.8°F17.7°C 84% 1.8 mph SW2.9 kmh SW 3.2 mph5.1 kmh 29.89 in1012.2 mb 0.00 in0.0 mm 0.00 in0.0 mm 0.00 in0.0 mm
07:20 PM 68.9°F20.5°C 63.9°F17.7°C 84% 2.0 mph SW3.2 kmh SW 3.7 mph6.0 kmh 29.89 in1012.2 mb 0.00 in0.0 mm 0.00 in0.0 mm 0.00 in0.0 mm
07:25 PM 68.9°F20.5°C 64.0°F17.8°C 84% 1.7 mph SW2.7 kmh SW 2.7 mph4.3 kmh 29.89 in1012.2 mb 0.00 in0.0 mm 0.00 in0.0 mm 0.00 in0.0 mm
07:30 PM 68.8°F20.4°C 64.1°F17.8°C 85% 2.2 mph SW3.5 kmh SW 3.7 mph6.0 kmh 29.89 in1012.2 mb 0.00 in0.0 mm 0.00 in0.0 mm 0.00 in0.0 mm
07:35 PM 68.7°F20.4°C 64.0°F17.8°C 85% 2.9 mph SW4.7 kmh SW 4.2 mph6.8 kmh 29.89 in1012.2 mb 0.00 in0.0 mm 0.00 in0.0 mm 0.00 in0.0 mm
07:40 PM 68.7°F20.4°C 64.0°F17.8°C 85% 2.4 mph SW3.9 kmh SW 4.7 mph7.6 kmh 29.89 in1012.2 mb 0.00 in0.0 mm 0.00 in0.0 mm 0.00 in0.0 mm
07:45 PM 68.7°F20.4°C 64.0°F17.8°C 85% 2.8 mph SW4.5 kmh SW 5.3 mph8.5 kmh 29.89 in1012.2 mb 0.00 in0.0 mm 0.00 in0.0 mm 0.00 in0.0 mm
07:50 PM 68.7°F20.4°C 64.0°F17.8°C 85% 2.7 mph SW4.3 kmh SW 4.7 mph7.6 kmh 29.89 in1012.2 mb 0.00 in0.0 mm 0.00 in0.0 mm 0.00 in0.0 mm
07:55 PM 68.7°F20.4°C 64.2°F17.9°C 86% 1.6 mph WSW2.6 kmh WSW 4.2 mph6.8 kmh 29.89 in1012.2 mb 0.00 in0.0 mm 0.00 in0.0 mm 0.00 in0.0 mm
08:00 PM 68.7°F20.4°C 64.3°F17.9°C 86% 1.5 mph SSW2.4 kmh SSW 4.2 mph6.8 kmh 29.89 in1012.2 mb 0.00 in0.0 mm 0.00 in0.0 mm 0.00 in0.0 mm
08:05 PM 68.5°F20.3°C 64.5°F18.1°C 87% 1.2 mph SW1.9 kmh SW 3.7 mph6.0 kmh 29.89 in1012.2 mb 0.00 in0.0 mm 0.00 in0.0 mm 0.00 in0.0 mm
08:10 PM 68.5°F20.3°C 64.8°F18.2°C 88% 0.8 mph SW1.3 kmh SW 2.7 mph4.3 kmh 29.89 in1012.2 mb 0.00 in0.0 mm 0.00 in0.0 mm 0.00 in0.0 mm
08:15 PM 68.5°F20.3°C 64.8°F18.2°C 88% 1.2 mph SW1.9 kmh SW 4.2 mph6.8 kmh 29.89 in1012.2 mb 0.00 in0.0 mm 0.00 in0.0 mm 0.00 in0.0 mm
08:20 PM 68.5°F20.3°C 65.0°F18.3°C 89% 1.7 mph S2.7 kmh S 5.3 mph8.5 kmh 29.89 in1012.2 mb 0.00 in0.0 mm 0.00 in0.0 mm 0.00 in0.0 mm
08:25 PM 68.5°F20.3°C 65.1°F18.4°C 89% 2.2 mph WSW3.5 kmh WSW 4.7 mph7.6 kmh 29.89 in1012.2 mb 0.00 in0.0 mm 0.00 in0.0 mm 0.00 in0.0 mm
08:30 PM 68.5°F20.3°C 65.1°F18.4°C 89% 2.3 mph SW3.7 kmh SW 4.2 mph6.8 kmh 29.89 in1012.2 mb 0.00 in0.0 mm 0.00 in0.0 mm 0.00 in0.0 mm
08:35 PM 68.5°F20.3°C 65.4°F18.6°C 90% 2.7 mph SW4.3 kmh SW 5.8 mph9.3 kmh 29.89 in1012.2 mb 0.00 in0.0 mm 0.00 in0.0 mm 0.00 in0.0 mm
08:40 PM 68.5°F20.3°C 65.4°F18.6°C 90% 2.1 mph SW3.4 kmh SW 4.2 mph6.8 kmh 29.89 in1012.2 mb 0.00 in0.0 mm 0.00 in0.0 mm 0.00 in0.0 mm
08:45 PM 68.5°F20.3°C 65.4°F18.6°C 90% 2.2 mph SW3.5 kmh SW 4.2 mph6.8 kmh 29.89 in1012.2 mb 0.00 in0.0 mm 0.00 in0.0 mm 0.00 in0.0 mm
08:50 PM 68.5°F20.3°C 65.4°F18.6°C 90% 1.0 mph SW1.6 kmh SW 2.7 mph4.3 kmh 29.89 in1012.2 mb 0.00 in0.0 mm 0.00 in0.0 mm 0.00 in0.0 mm
08:55 PM 68.3°F20.2°C 65.3°F18.5°C 90% 0.2 mph N0.3 kmh N 3.2 mph5.1 kmh 29.90 in1012.5 mb 0.00 in0.0 mm 0.00 in0.0 mm 0.00 in0.0 mm
09:00 PM 68.1°F20.1°C 65.5°F18.6°C 91% Calm Calm -- 29.90 in1012.5 mb 0.00 in0.0 mm 0.00 in0.0 mm 0.00 in0.0 mm
09:05 PM 68.0°F20.0°C 65.6°F18.7°C 92% Calm Calm -- 29.90 in1012.5 mb 0.00 in0.0 mm 0.00 in0.0 mm 0.00 in0.0 mm
09:10 PM 67.8°F19.9°C 65.4°F18.6°C 92% Calm Calm -- 29.90 in1012.5 mb 0.00 in0.0 mm 0.00 in0.0 mm 0.00 in0.0 mm
09:15 PM 67.8°F19.9°C 65.4°F18.6°C 92% Calm Calm -- 29.90 in1012.5 mb 0.00 in0.0 mm 0.00 in0.0 mm 0.00 in0.0 mm
09:20 PM 67.6°F19.8°C 65.2°F18.4°C 92% Calm Calm -- 29.90 in1012.5 mb 0.00 in0.0 mm 0.00 in0.0 mm 0.00 in0.0 mm
09:25 PM 67.5°F19.7°C 65.1°F18.4°C 92% Calm Calm -- 29.90 in1012.5 mb 0.00 in0.0 mm 0.00 in0.0 mm 0.00 in0.0 mm
09:30 PM 67.2°F19.6°C 64.7°F18.2°C 92% Calm Calm -- 29.90 in1012.5 mb 0.00 in0.0 mm 0.00 in0.0 mm 0.00 in0.0 mm
09:35 PM 67.0°F19.4°C 64.3°F17.9°C 91% Calm Calm -- 29.90 in1012.5 mb 0.00 in0.0 mm 0.00 in0.0 mm 0.00 in0.0 mm
09:40 PM 66.8°F19.3°C 64.1°F17.8°C 91% Calm Calm -- 29.90 in1012.5 mb 0.00 in0.0 mm 0.00 in0.0 mm 0.00 in0.0 mm
09:45 PM 66.7°F19.3°C 63.7°F17.6°C 90% Calm Calm -- 29.90 in1012.5 mb 0.00 in0.0 mm 0.00 in0.0 mm 0.00 in0.0 mm
09:50 PM 66.5°F19.2°C 63.5°F17.5°C 90% Calm Calm -- 29.90 in1012.5 mb 0.00 in0.0 mm 0.00 in0.0 mm 0.00 in0.0 mm
09:55 PM 66.3°F19.1°C 63.4°F17.4°C 90% Calm Calm -- 29.90 in1012.5 mb 0.00 in0.0 mm 0.00 in0.0 mm 0.00 in0.0 mm
10:00 PM 66.1°F18.9°C 63.7°F17.6°C 92% Calm Calm -- 29.90 in1012.5 mb 0.00 in0.0 mm 0.00 in0.0 mm 0.00 in0.0 mm
10:05 PM 66.0°F18.9°C 63.3°F17.4°C 91% Calm Calm -- 29.90 in1012.5 mb 0.00 in0.0 mm 0.00 in0.0 mm 0.00 in0.0 mm
10:10 PM 66.0°F18.9°C 63.0°F17.2°C 90% Calm Calm -- 29.90 in1012.5 mb 0.00 in0.0 mm 0.00 in0.0 mm 0.00 in0.0 mm
10:15 PM 66.0°F18.9°C 63.0°F17.2°C 90% Calm Calm -- 29.90 in1012.5 mb 0.00 in0.0 mm 0.00 in0.0 mm 0.00 in0.0 mm
10:20 PM 65.9°F18.8°C 62.9°F17.2°C 90% Calm Calm -- 29.90 in1012.5 mb 0.00 in0.0 mm 0.00 in0.0 mm 0.00 in0.0 mm
10:25 PM 65.8°F18.8°C 62.8°F17.1°C 90% Calm Calm -- 29.90 in1012.5 mb 0.00 in0.0 mm 0.00 in0.0 mm 0.00 in0.0 mm
10:30 PM 65.7°F18.7°C 62.7°F17.1°C 90% Calm Calm -- 29.90 in1012.5 mb 0.00 in0.0 mm 0.00 in0.0 mm 0.00 in0.0 mm
10:35 PM 65.7°F18.7°C 62.6°F17.0°C 90% Calm Calm -- 29.90 in1012.5 mb 0.00 in0.0 mm 0.00 in0.0 mm 0.00 in0.0 mm
10:40 PM 65.4°F18.6°C 62.4°F16.9°C 90% Calm Calm -- 29.91 in1012.9 mb 0.00 in0.0 mm 0.00 in0.0 mm 0.00 in0.0 mm
10:45 PM 65.3°F18.5°C 62.3°F16.8°C 90% Calm Calm -- 29.91 in1012.9 mb 0.00 in0.0 mm 0.00 in0.0 mm 0.00 in0.0 mm
10:50 PM 65.3°F18.5°C 62.3°F16.8°C 90% Calm Calm -- 29.91 in1012.9 mb 0.00 in0.0 mm 0.00 in0.0 mm 0.00 in0.0 mm
10:55 PM 65.3°F18.5°C 62.0°F16.7°C 89% Calm Calm -- 29.91 in1012.9 mb 0.00 in0.0 mm 0.00 in0.0 mm 0.00 in0.0 mm
11:00 PM 65.3°F18.5°C 62.0°F16.7°C 89% Calm Calm -- 29.91 in1012.9 mb 0.00 in0.0 mm 0.00 in0.0 mm 0.00 in0.0 mm
11:05 PM 65.6°F18.7°C 61.8°F16.6°C 87% Calm Calm -- 29.91 in1012.9 mb 0.00 in0.0 mm 0.00 in0.0 mm 0.00 in0.0 mm
11:10 PM 65.8°F18.8°C 61.5°F16.4°C 86% Calm Calm -- 29.91 in1012.9 mb 0.00 in0.0 mm 0.00 in0.0 mm 0.00 in0.0 mm
11:15 PM 65.7°F18.7°C 61.7°F16.5°C 87% Calm Calm -- 29.91 in1012.9 mb 0.00 in0.0 mm 0.00 in0.0 mm 0.00 in0.0 mm
11:20 PM 65.8°F18.8°C 61.6°F16.4°C 86% Calm Calm -- 29.91 in1012.9 mb 0.00 in0.0 mm 0.00 in0.0 mm 0.00 in0.0 mm
11:25 PM 65.7°F18.7°C 61.4°F16.3°C 86% Calm Calm -- 29.91 in1012.9 mb 0.00 in0.0 mm 0.00 in0.0 mm 0.00 in0.0 mm
11:30 PM 65.7°F18.7°C 61.4°F16.3°C 86% Calm Calm -- 29.91 in1012.9 mb 0.00 in0.0 mm 0.00 in0.0 mm 0.00 in0.0 mm
11:35 PM 65.4°F18.6°C 61.5°F16.4°C 87% Calm Calm -- 29.91 in1012.9 mb 0.00 in0.0 mm 0.00 in0.0 mm 0.00 in0.0 mm
11:40 PM 65.3°F18.5°C 61.0°F16.1°C 86% Calm Calm -- 29.90 in1012.5 mb 0.00 in0.0 mm 0.00 in0.0 mm 0.00 in0.0 mm
11:45 PM 65.3°F18.5°C 60.3°F15.7°C 84% Calm Calm -- 29.90 in1012.5 mb 0.00 in0.0 mm 0.00 in0.0 mm 0.00 in0.0 mm
11:50 PM 65.1°F18.4°C 59.9°F15.5°C 83% Calm Calm -- 29.90 in1012.5 mb 0.00 in0.0 mm 0.00 in0.0 mm 0.00 in0.0 mm
11:55 PM 65.1°F18.4°C 59.2°F15.1°C 81% Calm Calm -- 29.90 in1012.5 mb 0.00 in0.0 mm 0.00 in0.0 mm 0.00 in0.0 mm